TCA7378 SVHG-SVBC
Flight info
| Callsign | TCA7378 |
|---|---|
| Flight time | 0h 20m |
| Altitude | 15000 |
| Route | CBC G443 BNA |
| Aircraft | C25B/M-SDE2E3FGHRWXY/LB1 |
Departure
| Time | 2026-05-07 20:26 |
|---|---|
| Airport | Higuerote Airport (SVHG) |
Arrival
| Time | 2026-05-07 20:46 |
|---|---|
| Airport | General José Antonio Anzoategui International Airport (SVBC) |
| Time | Latitude | Longitude | Altitude | Speed | Heading |
|---|---|---|---|---|---|
| 2026-05-07 20:19 | 10.46369 | -66.09484 | 14 ft | 0 kts | 68° |
| 2026-05-07 20:23 | 10.46370 | -66.09483 | 14 ft | 1 kts | 77° |
| 2026-05-07 20:24 | 10.46354 | -66.09480 | 15 ft | 4 kts | 242° |
| 2026-05-07 20:24 | 10.46316 | -66.09499 | 15 ft | 11 kts | 157° |
| 2026-05-07 20:24 | 10.46254 | -66.09539 | 16 ft | 15 kts | 250° |
| 2026-05-07 20:24 | 10.46215 | -66.09644 | 17 ft | 17 kts | 250° |
| 2026-05-07 20:25 | 10.46175 | -66.09757 | 18 ft | 16 kts | 250° |
| 2026-05-07 20:25 | 10.46127 | -66.09806 | 18 ft | 10 kts | 160° |
| 2026-05-07 20:25 | 10.46065 | -66.09779 | 19 ft | 9 kts | 130° |
| 2026-05-07 20:25 | 10.46062 | -66.09759 | 20 ft | 1 kts | 68° |
| 2026-05-07 20:26 | 10.46205 | -66.09373 | 16 ft | 123 kts | 69° |
| 2026-05-07 20:26 | 10.46589 | -66.08341 | 706 ft | 177 kts | 67° |
| 2026-05-07 20:26 | 10.47088 | -66.07067 | 1952 ft | 207 kts | 67° |
| 2026-05-07 20:26 | 10.47546 | -66.05595 | 2868 ft | 230 kts | 83° |
| 2026-05-07 20:27 | 10.47144 | -66.04022 | 4134 ft | 233 kts | 111° |
| 2026-05-07 20:27 | 10.46669 | -66.02443 | 5355 ft | 235 kts | 100° |
| 2026-05-07 20:27 | 10.46398 | -66.00802 | 6570 ft | 236 kts | 99° |
| 2026-05-07 20:27 | 10.46125 | -65.99147 | 7726 ft | 239 kts | 101° |
| 2026-05-07 20:28 | 10.45828 | -65.97463 | 8765 ft | 245 kts | 102° |
| 2026-05-07 20:28 | 10.45519 | -65.95770 | 9798 ft | 249 kts | 102° |
| 2026-05-07 20:28 | 10.45215 | -65.94025 | 10812 ft | 253 kts | 101° |
| 2026-05-07 20:28 | 10.44903 | -65.92263 | 11847 ft | 254 kts | 99° |
| 2026-05-07 20:29 | 10.44588 | -65.90484 | 12838 ft | 257 kts | 99° |
| 2026-05-07 20:29 | 10.44267 | -65.88677 | 13744 ft | 263 kts | 99° |
| 2026-05-07 20:29 | 10.43937 | -65.86830 | 14605 ft | 269 kts | 99° |
| 2026-05-07 20:29 | 10.43596 | -65.84891 | 14996 ft | 294 kts | 100° |
| 2026-05-07 20:30 | 10.43211 | -65.82749 | 15010 ft | 316 kts | 100° |
| 2026-05-07 20:30 | 10.42826 | -65.80562 | 15011 ft | 322 kts | 99° |
| 2026-05-07 20:30 | 10.42425 | -65.78298 | 15011 ft | 329 kts | 100° |
| 2026-05-07 20:30 | 10.42014 | -65.75997 | 15010 ft | 333 kts | 100° |
| 2026-05-07 20:31 | 10.41603 | -65.73675 | 15009 ft | 335 kts | 100° |
| 2026-05-07 20:31 | 10.41186 | -65.71361 | 15011 ft | 332 kts | 100° |
| 2026-05-07 20:31 | 10.40783 | -65.69063 | 15008 ft | 329 kts | 100° |
| 2026-05-07 20:31 | 10.40371 | -65.66781 | 15008 ft | 328 kts | 100° |
| 2026-05-07 20:32 | 10.39969 | -65.64507 | 15009 ft | 326 kts | 100° |
| 2026-05-07 20:32 | 10.39567 | -65.62243 | 15009 ft | 325 kts | 100° |
| 2026-05-07 20:32 | 10.39165 | -65.60019 | 15008 ft | 324 kts | 100° |
| 2026-05-07 20:32 | 10.38766 | -65.57769 | 15007 ft | 324 kts | 100° |
| 2026-05-07 20:33 | 10.38367 | -65.55522 | 15007 ft | 323 kts | 100° |
| 2026-05-07 20:33 | 10.37967 | -65.53278 | 15008 ft | 323 kts | 100° |
| 2026-05-07 20:33 | 10.37563 | -65.51035 | 15008 ft | 323 kts | 100° |
| 2026-05-07 20:33 | 10.37163 | -65.48793 | 15007 ft | 323 kts | 100° |
| 2026-05-07 20:34 | 10.36767 | -65.46552 | 15006 ft | 322 kts | 100° |
| 2026-05-07 20:34 | 10.36363 | -65.44343 | 14978 ft | 321 kts | 100° |
| 2026-05-07 20:34 | 10.35973 | -65.42121 | 14645 ft | 311 kts | 100° |
| 2026-05-07 20:34 | 10.35589 | -65.40010 | 14251 ft | 306 kts | 100° |
| 2026-05-07 20:35 | 10.35216 | -65.37893 | 13847 ft | 301 kts | 99° |
| 2026-05-07 20:35 | 10.34840 | -65.35820 | 13450 ft | 297 kts | 99° |
| 2026-05-07 20:35 | 10.34433 | -65.33784 | 13058 ft | 292 kts | 103° |
| 2026-05-07 20:35 | 10.33909 | -65.31802 | 12673 ft | 289 kts | 103° |
| 2026-05-07 20:36 | 10.33433 | -65.29832 | 12291 ft | 286 kts | 102° |
| 2026-05-07 20:36 | 10.32961 | -65.27908 | 11920 ft | 284 kts | 103° |
| 2026-05-07 20:36 | 10.32474 | -65.25973 | 11543 ft | 282 kts | 102° |
| 2026-05-07 20:36 | 10.32009 | -65.24052 | 11170 ft | 279 kts | 103° |
| 2026-05-07 20:37 | 10.31528 | -65.22145 | 10806 ft | 278 kts | 103° |
| 2026-05-07 20:37 | 10.31062 | -65.20248 | 10438 ft | 276 kts | 103° |
| 2026-05-07 20:37 | 10.30592 | -65.18362 | 10076 ft | 276 kts | 103° |
| 2026-05-07 20:37 | 10.30125 | -65.16478 | 9704 ft | 275 kts | 104° |
| 2026-05-07 20:38 | 10.29658 | -65.14595 | 9341 ft | 274 kts | 104° |
| 2026-05-07 20:38 | 10.29191 | -65.12725 | 8979 ft | 272 kts | 105° |
| 2026-05-07 20:38 | 10.28738 | -65.10889 | 8623 ft | 271 kts | 104° |
| 2026-05-07 20:38 | 10.28278 | -65.09038 | 8263 ft | 270 kts | 105° |
| 2026-05-07 20:39 | 10.27815 | -65.07196 | 7906 ft | 269 kts | 104° |
| 2026-05-07 20:39 | 10.27366 | -65.05357 | 7552 ft | 268 kts | 104° |
| 2026-05-07 20:39 | 10.26906 | -65.03526 | 7196 ft | 267 kts | 104° |
| 2026-05-07 20:39 | 10.26455 | -65.01704 | 6841 ft | 266 kts | 104° |
| 2026-05-07 20:40 | 10.26001 | -64.99890 | 6489 ft | 265 kts | 104° |
| 2026-05-07 20:40 | 10.25558 | -64.98104 | 6144 ft | 264 kts | 104° |
| 2026-05-07 20:40 | 10.25108 | -64.96293 | 5791 ft | 264 kts | 104° |
| 2026-05-07 20:40 | 10.24660 | -64.94498 | 5442 ft | 261 kts | 104° |
| 2026-05-07 20:41 | 10.24221 | -64.92728 | 5099 ft | 258 kts | 104° |
| 2026-05-07 20:41 | 10.23782 | -64.90971 | 4766 ft | 255 kts | 103° |
| 2026-05-07 20:41 | 10.23352 | -64.89234 | 4422 ft | 253 kts | 103° |
| 2026-05-07 20:41 | 10.22919 | -64.87509 | 4086 ft | 252 kts | 103° |
| 2026-05-07 20:42 | 10.22492 | -64.85790 | 3745 ft | 249 kts | 103° |
| 2026-05-07 20:42 | 10.22079 | -64.84136 | 3423 ft | 241 kts | 103° |
| 2026-05-07 20:42 | 10.21673 | -64.82507 | 3106 ft | 236 kts | 102° |
| 2026-05-07 20:42 | 10.21276 | -64.80916 | 2797 ft | 227 kts | 102° |
| 2026-05-07 20:43 | 10.20898 | -64.79405 | 2505 ft | 215 kts | 102° |
| 2026-05-07 20:43 | 10.20543 | -64.77971 | 2233 ft | 205 kts | 102° |
| 2026-05-07 20:43 | 10.20037 | -64.76649 | 1975 ft | 199 kts | 117° |
| 2026-05-07 20:43 | 10.19213 | -64.75570 | 1721 ft | 190 kts | 128° |
| 2026-05-07 20:44 | 10.18183 | -64.74755 | 1468 ft | 186 kts | 140° |
| 2026-05-07 20:44 | 10.17183 | -64.73975 | 1242 ft | 183 kts | 136° |
| 2026-05-07 20:44 | 10.16185 | -64.73167 | 1001 ft | 184 kts | 137° |
| 2026-05-07 20:44 | 10.15187 | -64.72398 | 767 ft | 172 kts | 138° |
| 2026-05-07 20:45 | 10.14305 | -64.71715 | 572 ft | 143 kts | 136° |
| 2026-05-07 20:45 | 10.13573 | -64.71156 | 383 ft | 122 kts | 139° |
| 2026-05-07 20:45 | 10.12934 | -64.70649 | 215 ft | 112 kts | 135° |
| 2026-05-07 20:45 | 10.12323 | -64.70150 | 100 ft | 114 kts | 141° |
| 2026-05-07 20:46 | 10.11711 | -64.69684 | 29 ft | 101 kts | 143° |
| 2026-05-07 20:46 | 10.11391 | -64.69441 | 31 ft | 69 kts | 143° |
| 2026-05-07 20:46 | 10.11042 | -64.69169 | 33 ft | 37 kts | 142° |
| 2026-05-07 20:46 | 10.10861 | -64.69026 | 32 ft | 26 kts | 142° |
| 2026-05-07 20:47 | 10.10743 | -64.68911 | 30 ft | 20 kts | 111° |
| 2026-05-07 20:47 | 10.10751 | -64.68800 | 34 ft | 14 kts | 78° |
| 2026-05-07 20:47 | 10.10748 | -64.68714 | 34 ft | 10 kts | 122° |
| 2026-05-07 20:47 | 10.10747 | -64.68679 | 34 ft | 1 kts | 69° |
| 2026-05-07 20:48 | 10.10757 | -64.68674 | 34 ft | 2 kts | 353° |
| 2026-05-07 20:48 | 10.10758 | -64.68674 | 34 ft | 0 kts | 352° |